Time;durP1;ratioP1;P1;durP2;ratioP2;P2;SDS_P1;SDS_P2;PMS_P1;PMS_P2;Temp;Humidity;BMP_temperature;BMP_pressure;BME280_temperature;BME280_humidity;BME280_pressure;Samples;Min_cycle;Max_cycle;Signal;HPM_P1;HPM_P2
2023/10/24 00:01:15;;;;;;;13.45;12.05;;;12.50;99.90;;;;;;5053070;28;38423;-75
2023/10/24 00:03:41;;;;;;;14.98;12.05;;;12.50;99.90;;;;;;5061833;28;38096;-75
2023/10/24 00:06:08;;;;;;;18.33;15.40;;;12.50;99.90;;;;;;5063697;28;38852;-75
2023/10/24 00:08:34;;;;;;;17.45;15.20;;;12.50;99.90;;;;;;5063600;28;39525;-75
2023/10/24 00:11:02;;;;;;;17.60;15.73;;;12.50;99.90;;;;;;5069673;28;36600;-75
2023/10/24 00:13:29;;;;;;;19.95;17.27;;;12.50;99.90;;;;;;5064195;28;48385;-74
2023/10/24 00:15:56;;;;;;;23.50;19.10;;;12.50;99.90;;;;;;5065737;28;39205;-75
2023/10/24 00:18:22;;;;;;;23.70;20.10;;;12.50;99.90;;;;;;5056868;28;38741;-75
2023/10/24 00:20:48;;;;;;;22.70;19.10;;;12.50;99.90;;;;;;5056975;28;37741;-75
2023/10/24 00:23:14;;;;;;;22.98;19.88;;;12.50;99.90;;;;;;5055688;28;39822;-75
2023/10/24 00:25:40;;;;;;;23.17;20.83;;;12.50;99.90;;;;;;5062880;28;37648;-75
2023/10/24 00:28:06;;;;;;;24.77;20.73;;;12.50;99.90;;;;;;5058107;28;39039;-75
2023/10/24 00:30:32;;;;;;;28.10;22.27;;;12.50;99.90;;;;;;5063685;28;36907;-76
2023/10/24 00:32:58;;;;;;;29.13;23.83;;;12.50;99.90;;;;;;5066125;28;37929;-75
2023/10/24 00:35:24;;;;;;;26.85;22.33;;;12.50;99.90;;;;;;5065775;28;38752;-75
2023/10/24 00:37:51;;;;;;;28.02;22.23;;;12.50;99.90;;;;;;5064973;28;39355;-76
2023/10/24 00:40:18;;;;;;;29.52;23.80;;;12.50;99.90;;;;;;5051445;28;36492;-75
2023/10/24 00:42:45;;;;;;;31.10;24.83;;;12.50;99.90;;;;;;5062923;28;37722;-77
2023/10/24 00:45:11;;;;;;;29.58;24.77;;;12.50;99.90;;;;;;5072273;28;38080;-76
2023/10/24 00:47:38;;;;;;;36.22;25.88;;;12.50;99.90;;;;;;5064530;28;38376;-77
2023/10/24 00:50:07;;;;;;;28.42;24.80;;;12.50;99.90;;;;;;5067505;28;37358;-76
2023/10/24 00:52:37;;;;;;;34.35;24.73;;;12.50;99.90;;;;;;5063318;28;47052;-76
2023/10/24 00:55:05;;;;;;;29.02;22.85;;;12.50;99.90;;;;;;5058403;28;39463;-76
2023/10/24 00:57:31;;;;;;;30.30;23.42;;;12.50;99.90;;;;;;5059108;28;47037;-76
2023/10/24 00:59:58;;;;;;;31.30;23.63;;;12.50;99.90;;;;;;5059920;28;37361;-76
2023/10/24 01:02:24;;;;;;;29.48;22.85;;;12.50;99.90;;;;;;5557051;22;38551;-76
2023/10/24 01:04:55;;;;;;;29.15;21.83;;;12.50;99.90;;;;;;5058927;28;37645;-74
2023/10/24 01:07:21;;;;;;;33.83;21.63;;;12.50;99.90;;;;;;5063034;28;37464;-75
2023/10/24 01:09:47;;;;;;;32.88;23.10;;;12.50;99.90;;;;;;5065084;28;38277;-75
2023/10/24 01:12:13;;;;;;;31.33;23.08;;;12.50;99.90;;;;;;5065504;28;37620;-75
2023/10/24 01:14:40;;;;;;;31.45;23.75;;;12.50;99.90;;;;;;5066109;28;38839;-75
2023/10/24 01:17:13;;;;;;;39.28;23.02;;;12.50;99.90;;;;;;5061766;28;39413;-74
2023/10/24 01:19:39;;;;;;;33.92;24.48;;;12.50;99.90;;;;;;5059768;28;38373;-75
2023/10/24 01:22:05;;;;;;;37.40;25.98;;;12.50;99.90;;;;;;5062158;28;37538;-74
2023/10/24 01:24:32;;;;;;;33.08;23.10;;;12.50;99.90;;;;;;5066238;28;38612;-75
2023/10/24 01:26:58;;;;;;;33.70;23.80;;;12.50;99.90;;;;;;5063957;28;38253;-75
2023/10/24 01:29:25;;;;;;;34.53;25.55;;;12.50;99.90;;;;;;5046742;28;36350;-75
2023/10/24 01:31:51;;;;;;;33.55;24.02;;;12.50;99.90;;;;;;5055777;28;37864;-75
2023/10/24 01:34:17;;;;;;;30.75;23.10;;;12.50;99.90;;;;;;5057517;28;37573;-74
2023/10/24 01:36:43;;;;;;;31.50;24.65;;;12.50;99.90;;;;;;5061199;28;39473;-75
2023/10/24 01:39:11;;;;;;;34.00;25.33;;;12.50;99.90;;;;;;5059005;28;38371;-75
2023/10/24 01:41:37;;;;;;;29.40;22.83;;;12.50;99.90;;;;;;5065203;28;38592;-75
2023/10/24 01:44:03;;;;;;;28.55;23.48;;;12.50;99.90;;;;;;5066639;28;38774;-75
2023/10/24 01:46:29;;;;;;;31.05;23.90;;;12.50;99.90;;;;;;5060290;28;39037;-77
2023/10/24 01:48:56;;;;;;;28.75;22.75;;;12.50;99.90;;;;;;5056672;28;36336;-75
2023/10/24 01:51:22;;;;;;;29.65;21.63;;;12.50;99.90;;;;;;5058620;28;38480;-75
2023/10/24 01:53:48;;;;;;;26.02;21.40;;;12.50;99.90;;;;;;5057496;28;39106;-75
2023/10/24 01:56:14;;;;;;;30.60;22.67;;;12.40;99.90;;;;;;5057610;28;38477;-74
2023/10/24 01:58:40;;;;;;;31.55;22.02;;;12.40;99.90;;;;;;5055844;28;36292;-73
2023/10/24 02:01:07;;;;;;;26.60;21.13;;;12.50;99.90;;;;;;5055965;28;39854;-74
2023/10/24 02:03:33;;;;;;;26.85;21.55;;;12.40;99.90;;;;;;5062059;28;39136;-76
2023/10/24 02:06:00;;;;;;;31.77;22.83;;;12.40;99.90;;;;;;5065378;28;38565;-74
2023/10/24 02:08:26;;;;;;;31.17;22.75;;;12.50;99.90;;;;;;5066495;28;47396;-74
2023/10/24 02:10:53;;;;;;;30.75;22.70;;;12.50;99.90;;;;;;5065204;28;39417;-74
2023/10/24 02:13:19;;;;;;;25.55;21.98;;;12.40;99.90;;;;;;5061525;28;39138;-73
2023/10/24 02:15:45;;;;;;;25.95;21.27;;;12.40;99.90;;;;;;5048117;28;38386;-73
2023/10/24 02:18:11;;;;;;;26.02;20.50;;;12.40;99.90;;;;;;5057402;28;38187;-74
2023/10/24 02:20:37;;;;;;;28.23;22.42;;;12.40;99.90;;;;;;5059048;28;38281;-73
2023/10/24 02:23:04;;;;;;;26.58;21.20;;;12.40;99.90;;;;;;5041461;28;38338;-73
2023/10/24 02:25:30;;;;;;;26.52;22.15;;;12.40;99.90;;;;;;5039779;28;38557;-74
2023/10/24 02:27:56;;;;;;;31.38;24.73;;;12.40;99.90;;;;;;5059459;28;38433;-74
2023/10/24 02:30:22;;;;;;;30.08;23.20;;;12.40;99.90;;;;;;5057567;28;38220;-75
2023/10/24 02:32:49;;;;;;;26.75;21.70;;;12.30;99.90;;;;;;5056579;28;38117;-73
2023/10/24 02:35:15;;;;;;;26.30;22.08;;;12.40;99.90;;;;;;5054981;28;37258;-74
2023/10/24 02:37:41;;;;;;;29.83;24.08;;;12.40;99.90;;;;;;5061447;28;38372;-74
2023/10/24 02:40:08;;;;;;;28.83;23.08;;;12.40;99.90;;;;;;5064928;28;37187;-75
2023/10/24 02:42:34;;;;;;;29.10;22.88;;;12.40;99.90;;;;;;5065517;28;38754;-74
2023/10/24 02:45:01;;;;;;;27.42;21.55;;;12.30;99.90;;;;;;5061171;28;37723;-76
2023/10/24 02:47:27;;;;;;;29.20;24.10;;;12.40;99.90;;;;;;5066818;28;37486;-74
2023/10/24 02:49:54;;;;;;;29.02;23.40;;;12.40;99.90;;;;;;5059650;28;38631;-74
2023/10/24 02:52:20;;;;;;;30.98;22.52;;;12.40;99.90;;;;;;5059104;28;39746;-75
2023/10/24 02:54:46;;;;;;;32.05;22.10;;;12.40;99.90;;;;;;5064158;28;37673;-74
2023/10/24 02:57:12;;;;;;;28.90;23.00;;;12.40;99.90;;;;;;5059014;28;37087;-75
2023/10/24 02:59:39;;;;;;;28.30;23.00;;;12.40;99.90;;;;;;5060487;28;39950;-74
2023/10/24 03:02:05;;;;;;;29.67;22.63;;;12.40;99.90;;;;;;5054330;28;37626;-75
2023/10/24 03:04:31;;;;;;;27.58;21.83;;;12.40;99.90;;;;;;5057927;28;36038;-76
2023/10/24 03:06:57;;;;;;;26.38;21.65;;;12.30;99.90;;;;;;5054844;28;37381;-75
2023/10/24 03:09:23;;;;;;;31.50;23.45;;;12.30;99.90;;;;;;5054882;28;38865;-76
2023/10/24 03:11:49;;;;;;;34.13;23.77;;;12.40;99.90;;;;;;5054684;28;38619;-75
2023/10/24 03:14:15;;;;;;;30.20;23.17;;;12.40;99.90;;;;;;5051983;28;37399;-76
2023/10/24 03:16:42;;;;;;;32.45;24.08;;;12.40;99.90;;;;;;5054206;28;37275;-75
2023/10/24 03:19:08;;;;;;;33.08;24.05;;;12.40;99.90;;;;;;5051718;28;38632;-75
2023/10/24 03:21:34;;;;;;;34.50;23.60;;;12.40;99.90;;;;;;5055623;28;38143;-75
2023/10/24 03:24:00;;;;;;;30.40;22.50;;;12.40;99.90;;;;;;5045986;28;37392;-75
2023/10/24 03:26:26;;;;;;;30.20;23.50;;;12.40;99.90;;;;;;5053349;28;37306;-76
2023/10/24 03:28:52;;;;;;;33.75;24.02;;;12.40;99.90;;;;;;5069866;28;37754;-75
2023/10/24 03:31:18;;;;;;;39.15;25.52;;;12.40;99.90;;;;;;5056260;28;38595;-75
2023/10/24 03:33:44;;;;;;;37.63;25.13;;;12.40;99.90;;;;;;5055178;28;39220;-76
2023/10/24 03:36:14;;;;;;;36.15;26.50;;;12.40;99.90;;;;;;5053149;28;37727;-75
2023/10/24 03:38:40;;;;;;;36.38;26.50;;;12.30;99.90;;;;;;5075053;28;37593;-75
2023/10/24 03:41:07;;;;;;;37.17;25.73;;;12.30;99.90;;;;;;5055532;28;37800;-76
2023/10/24 03:43:35;;;;;;;38.63;26.17;;;12.30;99.90;;;;;;5058906;28;38422;-77
2023/10/24 03:46:07;;;;;;;41.20;26.40;;;12.30;99.90;;;;;;5061065;28;37413;-76
2023/10/24 03:48:33;;;;;;;36.63;25.55;;;12.20;99.90;;;;;;5058796;28;48157;-75
2023/10/24 03:51:00;;;;;;;37.00;24.40;;;12.20;99.90;;;;;;5059360;28;37983;-76
2023/10/24 03:53:27;;;;;;;36.47;25.60;;;12.20;99.90;;;;;;5060061;28;38573;-76
2023/10/24 03:55:58;;;;;;;38.67;25.10;;;12.20;99.90;;;;;;5058322;28;37559;-76
2023/10/24 03:58:25;;;;;;;36.78;24.77;;;12.20;99.90;;;;;;5053114;28;37866;-75
2023/10/24 04:00:51;;;;;;;34.72;24.65;;;12.20;99.90;;;;;;5057463;28;38140;-75
2023/10/24 04:03:19;;;;;;;35.47;23.75;;;12.20;99.90;;;;;;5058403;28;38259;-76
2023/10/24 04:05:45;;;;;;;37.13;25.08;;;12.20;99.90;;;;;;5057429;28;35945;-76
2023/10/24 04:08:12;;;;;;;35.15;23.10;;;12.20;99.90;;;;;;5055940;28;38077;-76
2023/10/24 04:10:38;;;;;;;30.80;22.67;;;12.10;99.90;;;;;;5070274;28;37253;-76
2023/10/24 04:13:04;;;;;;;33.92;23.65;;;12.10;99.90;;;;;;5060175;28;37033;-75
2023/10/24 04:15:30;;;;;;;34.67;23.75;;;12.00;99.90;;;;;;5057300;28;37577;-75
2023/10/24 04:17:56;;;;;;;32.65;21.73;;;12.10;99.90;;;;;;5057981;28;37727;-75
2023/10/24 04:20:22;;;;;;;29.48;21.77;;;12.00;99.90;;;;;;5049881;28;37899;-75
2023/10/24 04:22:49;;;;;;;33.72;21.65;;;12.00;99.90;;;;;;5057647;28;38868;-75
2023/10/24 04:25:15;;;;;;;30.58;22.48;;;12.00;99.90;;;;;;5055855;28;37995;-75
2023/10/24 04:27:41;;;;;;;29.80;21.65;;;12.00;99.90;;;;;;5055478;28;38899;-75
2023/10/24 04:30:09;;;;;;;33.20;23.45;;;12.00;99.90;;;;;;5057581;28;39398;-76
2023/10/24 04:32:36;;;;;;;28.30;21.13;;;12.10;99.90;;;;;;5058129;28;38967;-76
2023/10/24 04:35:02;;;;;;;29.77;21.42;;;12.00;99.90;;;;;;5062002;28;37020;-75
2023/10/24 04:37:29;;;;;;;28.05;20.42;;;12.00;99.90;;;;;;5060972;28;40233;-75
2023/10/24 04:39:55;;;;;;;26.65;19.05;;;12.10;99.90;;;;;;5060105;28;39557;-74
2023/10/24 04:42:21;;;;;;;27.13;19.85;;;12.00;99.90;;;;;;5063023;28;37371;-75
2023/10/24 04:44:47;;;;;;;25.52;19.33;;;12.10;99.90;;;;;;5067445;28;37568;-76
2023/10/24 04:47:13;;;;;;;29.52;19.80;;;12.10;99.90;;;;;;5069806;28;39145;-75
2023/10/24 04:49:40;;;;;;;28.55;20.40;;;12.10;99.90;;;;;;5061904;28;38796;-76
2023/10/24 04:52:06;;;;;;;28.92;19.92;;;12.10;99.90;;;;;;5057989;28;38262;-76
2023/10/24 04:54:33;;;;;;;29.55;21.05;;;12.10;99.90;;;;;;5054242;28;36918;-76
2023/10/24 04:57:00;;;;;;;29.73;20.48;;;12.00;99.90;;;;;;5060869;28;38407;-75
2023/10/24 04:59:27;;;;;;;29.15;20.63;;;12.10;99.90;;;;;;5053610;28;37720;-75
2023/10/24 05:01:53;;;;;;;28.88;20.33;;;12.10;99.90;;;;;;5057798;28;38041;-75
2023/10/24 05:04:19;;;;;;;32.08;22.67;;;12.10;99.90;;;;;;5062916;28;37293;-75
2023/10/24 05:06:46;;;;;;;34.38;21.73;;;12.10;99.90;;;;;;5063224;28;37617;-76
2023/10/24 05:09:14;;;;;;;32.38;21.85;;;12.10;99.90;;;;;;5066694;28;37860;-76
2023/10/24 05:11:41;;;;;;;33.28;23.52;;;12.10;99.90;;;;;;5072468;28;38360;-76
2023/10/24 05:14:08;;;;;;;33.55;23.58;;;12.10;99.90;;;;;;5061016;28;37706;-77
2023/10/24 05:16:34;;;;;;;32.38;23.15;;;12.10;99.90;;;;;;5063825;28;38619;-76
2023/10/24 05:19:00;;;;;;;35.95;23.92;;;12.10;99.90;;;;;;5059520;28;37718;-76
2023/10/24 05:21:26;;;;;;;34.78;24.58;;;12.20;99.90;;;;;;5055198;28;37479;-76
2023/10/24 05:23:52;;;;;;;37.15;25.30;;;12.10;99.90;;;;;;5061273;28;37358;-75
2023/10/24 05:26:18;;;;;;;34.75;24.60;;;12.20;99.90;;;;;;5075597;28;38035;-76
2023/10/24 05:28:45;;;;;;;34.83;22.90;;;12.10;99.90;;;;;;5059593;28;37810;-76
2023/10/24 05:31:11;;;;;;;31.70;23.92;;;12.10;99.90;;;;;;5070496;28;39169;-75
2023/10/24 05:33:38;;;;;;;31.23;24.60;;;12.10;99.90;;;;;;5057844;28;37787;-74
2023/10/24 05:36:05;;;;;;;34.75;24.95;;;12.10;99.90;;;;;;5058418;28;37979;-74
2023/10/24 05:38:32;;;;;;;32.38;24.25;;;12.10;99.90;;;;;;5062519;28;39130;-74
2023/10/24 05:41:02;;;;;;;34.72;24.67;;;12.10;99.90;;;;;;5073287;28;38860;-75
2023/10/24 05:43:28;;;;;;;33.05;24.50;;;12.10;99.90;;;;;;5070312;28;38201;-75
2023/10/24 05:45:54;;;;;;;37.83;25.83;;;12.10;99.90;;;;;;5068706;28;36804;-76
2023/10/24 05:48:21;;;;;;;36.85;25.30;;;12.10;99.90;;;;;;5064440;28;37449;-76
2023/10/24 05:50:47;;;;;;;32.25;24.50;;;12.10;99.90;;;;;;5073067;28;38303;-76
2023/10/24 05:53:13;;;;;;;31.35;23.88;;;12.10;99.90;;;;;;5071443;28;36096;-76
2023/10/24 05:55:40;;;;;;;33.83;24.88;;;12.10;99.90;;;;;;5060835;28;37888;-75
2023/10/24 05:58:07;;;;;;;34.83;24.70;;;12.10;99.90;;;;;;5059611;28;37606;-75
2023/10/24 06:00:33;;;;;;;32.17;24.15;;;12.20;99.90;;;;;;5083910;28;37726;-76
2023/10/24 06:02:59;;;;;;;33.45;24.55;;;12.10;99.90;;;;;;5070159;28;37121;-75
2023/10/24 06:05:25;;;;;;;33.90;25.23;;;12.10;99.90;;;;;;5073023;28;39248;-77
2023/10/24 06:07:51;;;;;;;39.58;27.08;;;12.10;99.90;;;;;;5075404;28;39547;-76
2023/10/24 06:10:17;;;;;;;41.97;27.20;;;12.10;99.90;;;;;;5062312;28;38371;-76
2023/10/24 06:12:43;;;;;;;37.22;26.35;;;12.10;99.90;;;;;;5063080;28;36154;-76
2023/10/24 06:15:10;;;;;;;40.60;26.83;;;12.20;99.90;;;;;;5059815;28;40124;-76
2023/10/24 06:17:36;;;;;;;37.60;26.70;;;12.10;99.90;;;;;;5054223;28;38608;-77
2023/10/24 06:20:02;;;;;;;38.30;27.30;;;12.10;99.90;;;;;;5062430;28;37394;-77
2023/10/24 06:22:30;;;;;;;37.08;27.55;;;12.20;99.90;;;;;;5061011;28;37564;-76
2023/10/24 06:24:57;;;;;;;39.38;27.30;;;12.20;99.90;;;;;;5054563;28;37604;-76
2023/10/24 06:27:23;;;;;;;37.05;26.67;;;12.20;99.90;;;;;;5055630;28;39471;-77
2023/10/24 06:29:50;;;;;;;39.10;28.38;;;12.20;99.90;;;;;;5058875;28;37678;-77
2023/10/24 06:32:16;;;;;;;34.92;25.65;;;12.20;99.90;;;;;;5063183;28;37061;-77
2023/10/24 06:34:42;;;;;;;39.05;26.80;;;12.20;99.90;;;;;;5058294;28;38068;-78
2023/10/24 06:37:08;;;;;;;35.65;26.35;;;12.20;99.90;;;;;;5063255;28;38755;-77
2023/10/24 06:39:34;;;;;;;36.85;26.42;;;12.30;99.90;;;;;;5058669;28;38689;-76
2023/10/24 06:42:00;;;;;;;39.35;28.80;;;12.30;99.90;;;;;;5072607;28;36685;-76
2023/10/24 06:44:27;;;;;;;36.70;27.10;;;12.30;99.90;;;;;;5063427;28;37906;-76
2023/10/24 06:46:54;;;;;;;40.50;29.08;;;12.30;99.90;;;;;;5058807;28;37951;-75
2023/10/24 06:49:20;;;;;;;41.28;29.38;;;12.30;99.90;;;;;;5062294;28;37859;-78
2023/10/24 06:51:46;;;;;;;40.50;30.08;;;12.30;99.90;;;;;;5061407;28;37169;-77
2023/10/24 06:54:12;;;;;;;40.88;30.45;;;12.30;99.90;;;;;;5062320;28;37402;-76
2023/10/24 06:56:38;;;;;;;44.13;28.63;;;12.30;99.90;;;;;;5057734;28;39574;-77
2023/10/24 06:59:04;;;;;;;41.25;28.73;;;12.30;99.90;;;;;;5065519;28;37506;-78
2023/10/24 07:01:30;;;;;;;40.50;27.80;;;12.30;99.90;;;;;;5061325;28;37215;-77
2023/10/24 07:03:56;;;;;;;43.13;29.48;;;12.30;99.90;;;;;;5064061;28;37960;-77
2023/10/24 07:06:22;;;;;;;41.58;29.88;;;12.30;99.90;;;;;;5058356;28;37783;-77
2023/10/24 07:08:48;;;;;;;41.50;29.25;;;12.30;99.90;;;;;;5062322;28;38020;-77
2023/10/24 07:11:15;;;;;;;39.72;29.30;;;12.30;99.90;;;;;;5072587;28;37208;-77
2023/10/24 07:13:41;;;;;;;40.75;28.73;;;12.30;99.90;;;;;;5071255;28;38051;-78
2023/10/24 07:16:14;;;;;;;39.80;27.38;;;12.20;99.90;;;;;;5079644;28;38578;-77
2023/10/24 07:18:41;;;;;;;40.00;27.65;;;12.30;99.90;;;;;;5074717;28;37582;-77
2023/10/24 07:21:07;;;;;;;34.53;25.67;;;12.20;99.90;;;;;;5070407;28;36674;-77
2023/10/24 07:23:33;;;;;;;34.60;26.55;;;12.30;99.90;;;;;;5074198;28;38673;-74
2023/10/24 07:25:59;;;;;;;37.00;26.38;;;12.30;99.90;;;;;;5069489;28;38110;-77
2023/10/24 07:28:25;;;;;;;35.35;24.83;;;12.30;99.90;;;;;;5065218;28;37193;-77
2023/10/24 07:30:54;;;;;;;33.83;24.73;;;12.30;99.90;;;;;;5067587;28;38467;-77
2023/10/24 07:33:21;;;;;;;32.47;25.60;;;12.30;99.90;;;;;;5064867;28;38000;-77
2023/10/24 07:35:50;;;;;;;27.30;23.27;;;12.30;99.90;;;;;;5066518;28;38815;-77
2023/10/24 07:38:19;;;;;;;28.83;23.75;;;12.30;99.90;;;;;;5059785;28;37722;-76
2023/10/24 07:40:47;;;;;;;29.35;22.60;;;12.30;99.90;;;;;;5064975;28;37157;-78
2023/10/24 07:43:14;;;;;;;32.90;24.35;;;12.40;99.90;;;;;;5063874;28;38260;-79
2023/10/24 07:45:40;;;;;;;28.65;22.63;;;12.30;99.90;;;;;;5063249;28;37636;-78
2023/10/24 07:48:06;;;;;;;27.23;22.70;;;12.30;99.90;;;;;;5060489;28;37368;-77
2023/10/24 07:50:33;;;;;;;29.40;24.25;;;12.30;99.90;;;;;;5065505;28;36277;-76
2023/10/24 07:52:59;;;;;;;26.77;23.00;;;12.30;99.90;;;;;;5064519;28;38567;-77
2023/10/24 07:55:25;;;;;;;29.00;23.10;;;12.20;99.90;;;;;;5060318;28;37653;-77
2023/10/24 07:57:51;;;;;;;27.25;22.75;;;12.20;99.90;;;;;;5062487;28;38303;-77
2023/10/24 08:00:18;;;;;;;24.63;20.63;;;12.30;99.90;;;;;;5068820;28;36414;-77
2023/10/24 08:02:44;;;;;;;25.42;21.63;;;12.20;99.90;;;;;;5060047;28;37922;-77
2023/10/24 08:05:10;;;;;;;27.60;21.33;;;12.20;99.90;;;;;;5055735;28;37728;-75
2023/10/24 08:07:37;;;;;;;26.17;21.83;;;12.20;99.90;;;;;;5064587;28;38683;-75
2023/10/24 08:10:03;;;;;;;23.55;20.98;;;12.20;99.90;;;;;;5078183;28;36261;-76
2023/10/24 08:12:29;;;;;;;29.48;22.30;;;12.20;99.90;;;;;;5066427;28;47857;-75
2023/10/24 08:14:56;;;;;;;25.15;21.38;;;12.20;99.90;;;;;;5071248;28;37756;-77
2023/10/24 08:17:22;;;;;;;28.48;23.35;;;12.20;99.90;;;;;;5062040;28;37515;-77
2023/10/24 08:19:49;;;;;;;25.08;21.17;;;12.20;99.90;;;;;;5068595;28;36887;-77
2023/10/24 08:22:15;;;;;;;25.45;21.63;;;12.20;99.90;;;;;;5064102;28;37856;-77
2023/10/24 08:24:41;;;;;;;26.65;20.95;;;12.20;99.90;;;;;;5064904;28;39267;-77
2023/10/24 08:27:07;;;;;;;23.65;19.23;;;12.20;99.90;;;;;;5064706;28;38726;-77
2023/10/24 08:29:33;;;;;;;20.90;18.30;;;12.20;99.90;;;;;;5067222;28;37320;-76
2023/10/24 08:31:59;;;;;;;20.70;17.83;;;12.20;99.90;;;;;;5068598;28;38098;-76
2023/10/24 08:34:26;;;;;;;23.15;16.83;;;12.30;99.90;;;;;;5070359;28;38799;-77
2023/10/24 08:36:52;;;;;;;23.08;17.30;;;12.30;99.90;;;;;;5059202;28;38786;-77
2023/10/24 08:39:18;;;;;;;20.00;16.08;;;12.20;99.90;;;;;;5066017;27;37252;-76
2023/10/24 08:41:48;;;;;;;18.88;15.95;;;12.30;99.90;;;;;;5065122;28;38447;-76
2023/10/24 08:44:17;;;;;;;19.35;16.15;;;12.30;99.90;;;;;;5067308;28;38589;-77
2023/10/24 08:46:45;;;;;;;23.05;16.50;;;12.30;99.90;;;;;;5060461;28;38883;-75
2023/10/24 08:49:12;;;;;;;21.60;15.98;;;12.30;99.90;;;;;;5059337;28;36239;-76
2023/10/24 08:51:39;;;;;;;18.45;14.80;;;12.30;99.90;;;;;;5067885;28;39780;-77
2023/10/24 08:54:06;;;;;;;20.80;14.38;;;12.30;99.90;;;;;;5065606;28;37963;-77
2023/10/24 08:56:33;;;;;;;18.35;15.32;;;12.30;99.90;;;;;;5065257;28;40707;-75
2023/10/24 08:59:00;;;;;;;18.10;14.80;;;12.40;99.90;;;;;;5068829;28;37791;-77
2023/10/24 09:01:27;;;;;;;21.92;14.68;;;12.40;99.90;;;;;;5067655;28;37494;-76
2023/10/24 09:03:54;;;;;;;21.95;15.88;;;12.40;99.90;;;;;;5068769;28;37562;-77
2023/10/24 09:06:22;;;;;;;18.42;14.75;;;12.40;99.90;;;;;;5068106;28;37233;-77
2023/10/24 09:08:51;;;;;;;23.05;15.77;;;12.50;99.90;;;;;;5069610;28;36577;-77
2023/10/24 09:11:17;;;;;;;19.85;16.58;;;12.50;99.90;;;;;;5064868;28;38790;-77
2023/10/24 09:13:44;;;;;;;23.45;17.17;;;12.40;99.90;;;;;;5069394;28;38144;-77
2023/10/24 09:16:11;;;;;;;19.27;15.13;;;12.40;99.90;;;;;;5068618;28;38550;-76
2023/10/24 09:18:39;;;;;;;24.00;15.68;;;12.50;99.90;;;;;;5067602;28;36610;-77
2023/10/24 09:21:07;;;;;;;23.95;16.73;;;12.50;99.90;;;;;;5068782;28;38619;-77
2023/10/24 09:23:36;;;;;;;21.63;16.25;;;12.50;99.90;;;;;;5069985;28;38743;-77
2023/10/24 09:26:04;;;;;;;22.75;17.50;;;12.50;99.90;;;;;;5068233;28;38189;-77
2023/10/24 09:28:31;;;;;;;21.30;17.35;;;12.50;99.90;;;;;;5068086;28;36965;-76
2023/10/24 09:30:58;;;;;;;21.88;17.27;;;12.50;99.90;;;;;;5062758;28;37985;-76
2023/10/24 09:33:26;;;;;;;26.05;17.38;;;12.50;99.90;;;;;;5065770;28;37508;-75
2023/10/24 09:35:52;;;;;;;21.65;17.38;;;12.50;99.90;;;;;;5059260;28;38194;-76
2023/10/24 09:38:21;;;;;;;22.23;17.50;;;12.60;99.90;;;;;;5059086;28;36251;-75
2023/10/24 09:40:47;;;;;;;23.52;17.80;;;12.50;99.90;;;;;;5066519;28;38951;-76
2023/10/24 09:43:20;;;;;;;26.23;19.98;;;12.50;99.90;;;;;;5067283;28;39730;-76
2023/10/24 09:45:49;;;;;;;28.75;20.13;;;12.50;99.90;;;;;;5063631;28;38311;-76
2023/10/24 09:48:16;;;;;;;24.85;20.30;;;12.50;99.90;;;;;;5061078;28;37230;-77
2023/10/24 09:50:46;;;;;;;24.25;19.25;;;12.60;99.90;;;;;;5058695;28;38529;-76
2023/10/24 09:53:12;;;;;;;25.05;21.17;;;12.50;99.90;;;;;;5067060;28;37941;-76
2023/10/24 09:55:40;;;;;;;24.05;19.58;;;12.50;99.90;;;;;;5068042;28;38722;-75
2023/10/24 09:58:08;;;;;;;25.15;20.63;;;12.50;99.90;;;;;;5064881;28;36211;-76
2023/10/24 10:00:35;;;;;;;27.95;21.60;;;12.60;99.90;;;;;;5062801;28;37574;-76
2023/10/24 10:03:03;;;;;;;26.15;21.15;;;12.60;99.90;;;;;;5065508;28;40161;-76
2023/10/24 10:05:30;;;;;;;26.10;20.67;;;12.60;99.90;;;;;;5064555;28;37581;-76
2023/10/24 10:07:59;;;;;;;24.42;20.00;;;12.60;99.90;;;;;;5069502;28;38238;-76
2023/10/24 10:10:25;;;;;;;24.00;19.30;;;12.70;99.90;;;;;;5067887;28;37724;-76
2023/10/24 10:12:59;;;;;;;22.77;19.98;;;12.70;99.90;;;;;;5067298;28;37518;-76
2023/10/24 10:15:38;;;;;;;26.45;18.52;;;12.70;99.90;;;;;;5066866;28;38527;-76
2023/10/24 10:18:35;;;;;;;20.60;17.25;;;12.70;99.90;;;;;;5064994;28;38347;-76
2023/10/24 10:21:24;;;;;;;23.40;16.90;;;12.70;99.90;;;;;;5059043;28;38776;-75
2023/10/24 10:24:20;;;;;;;17.23;14.88;;;12.70;99.90;;;;;;5066454;28;47333;-77
2023/10/24 10:27:19;;;;;;;18.60;15.10;;;12.80;99.90;;;;;;5068774;28;48554;-76
2023/10/24 10:30:10;;;;;;;20.48;14.90;;;12.80;99.90;;;;;;5048219;28;47333;-77
2023/10/24 10:33:28;;;;;;;16.55;13.60;;;12.80;99.90;;;;;;5052950;28;47056;-76
2023/10/24 10:36:05;;;;;;;18.38;13.45;;;12.90;99.90;;;;;;5035890;28;48406;-76
2023/10/24 10:38:48;;;;;;;14.40;11.05;;;12.80;99.90;;;;;;5050552;28;47204;-76
2023/10/24 10:41:23;;;;;;;12.50;10.07;;;12.80;99.90;;;;;;5062174;28;38123;-75
2023/10/24 10:43:50;;;;;;;12.93;9.88;;;12.80;99.90;;;;;;5061334;28;37662;-76
2023/10/24 10:46:18;;;;;;;10.63;8.45;;;12.80;99.90;;;;;;5065031;28;39525;-76
2023/10/24 10:48:47;;;;;;;10.02;8.02;;;12.70;99.90;;;;;;5065834;28;37535;-76
2023/10/24 10:51:20;;;;;;;8.88;7.97;;;12.70;99.90;;;;;;5071268;28;37552;-76
2023/10/24 10:54:08;;;;;;;9.88;7.35;;;12.60;99.90;;;;;;5072670;28;38736;-76
2023/10/24 10:56:37;;;;;;;7.25;6.28;;;12.60;99.90;;;;;;5070552;28;49542;-76
2023/10/24 10:59:09;;;;;;;6.50;5.50;;;12.50;99.90;;;;;;5063870;28;37698;-76
2023/10/24 11:02:02;;;;;;;11.15;5.72;;;12.50;99.90;;;;;;5062002;28;35905;-76
2023/10/24 11:04:29;;;;;;;6.93;5.43;;;12.50;99.90;;;;;;5067480;28;47954;-78
2023/10/24 11:06:56;;;;;;;6.00;5.30;;;12.40;99.90;;;;;;5065875;28;39068;-76
2023/10/24 11:09:30;;;;;;;6.20;5.07;;;12.40;99.90;;;;;;5069539;28;38532;-76
2023/10/24 11:12:18;;;;;;;8.77;5.43;;;12.30;99.90;;;;;;5064073;28;35969;-76
2023/10/24 11:15:05;;;;;;;6.78;4.10;;;12.30;99.90;;;;;;5065865;28;48316;-76
2023/10/24 11:17:32;;;;;;;4.97;4.07;;;12.30;99.90;;;;;;5054009;28;47498;-75
2023/10/24 11:20:05;;;;;;;6.50;4.63;;;12.20;99.90;;;;;;5068338;28;37707;-74
2023/10/24 11:22:32;;;;;;;6.07;4.40;;;12.20;99.90;;;;;;5062995;28;47259;-76
2023/10/24 11:24:58;;;;;;;8.20;4.10;;;12.20;99.90;;;;;;5067099;28;38997;-76
2023/10/24 11:27:24;;;;;;;5.65;4.07;;;12.10;99.90;;;;;;5066018;28;38240;-75
2023/10/24 11:29:50;;;;;;;8.18;3.88;;;12.20;99.90;;;;;;5062823;28;39582;-77
2023/10/24 11:32:17;;;;;;;4.05;2.88;;;12.10;99.90;;;;;;5065162;28;36854;-76
2023/10/24 11:34:44;;;;;;;4.78;2.80;;;12.10;99.90;;;;;;5063462;28;38794;-75
2023/10/24 11:37:10;;;;;;;3.72;2.55;;;12.10;99.90;;;;;;5065641;28;38650;-76
2023/10/24 11:39:36;;;;;;;2.95;2.40;;;12.20;99.90;;;;;;5065194;28;37361;-76
2023/10/24 11:42:03;;;;;;;3.85;2.40;;;12.20;99.90;;;;;;5061147;28;36876;-75
2023/10/24 11:44:29;;;;;;;4.18;1.90;;;12.20;99.90;;;;;;5063970;28;39069;-76
2023/10/24 11:46:55;;;;;;;3.97;1.85;;;12.20;99.90;;;;;;5063082;28;38157;-77
2023/10/24 11:49:32;;;;;;;2.22;1.40;;;12.20;99.90;;;;;;5066341;28;38385;-76
2023/10/24 11:51:58;;;;;;;2.15;1.55;;;12.30;99.90;;;;;;5066500;28;37091;-77
2023/10/24 11:54:27;;;;;;;3.25;1.58;;;12.50;99.90;;;;;;5068562;28;39812;-76
2023/10/24 11:56:54;;;;;;;3.00;1.75;;;12.50;99.90;;;;;;5067470;28;38941;-76
2023/10/24 11:59:20;;;;;;;3.05;1.42;;;12.50;99.90;;;;;;5068654;28;37545;-77
2023/10/24 12:01:46;;;;;;;4.53;1.25;;;12.40;99.90;;;;;;5068277;28;35952;-76
2023/10/24 12:04:16;;;;;;;2.28;1.17;;;12.40;99.90;;;;;;5061245;28;38944;-75
2023/10/24 12:06:42;;;;;;;2.50;1.67;;;12.50;99.90;;;;;;5064976;28;37983;-76
2023/10/24 12:09:08;;;;;;;4.15;2.03;;;12.40;99.90;;;;;;5067036;28;36933;-75
2023/10/24 12:11:35;;;;;;;7.25;1.80;;;12.40;99.90;;;;;;5069065;28;37150;-75
2023/10/24 12:14:02;;;;;;;7.30;2.22;;;12.50;99.90;;;;;;5068885;28;38503;-76
2023/10/24 12:16:29;;;;;;;6.90;2.53;;;12.50;99.90;;;;;;5069189;28;38890;-76
2023/10/24 12:18:56;;;;;;;4.82;2.70;;;12.50;99.90;;;;;;5067702;28;39317;-76
2023/10/24 12:21:23;;;;;;;6.53;3.20;;;12.50;99.90;;;;;;5063889;28;37159;-76
2023/10/24 12:23:49;;;;;;;4.25;2.70;;;12.60;99.90;;;;;;5060736;28;37567;-76
2023/10/24 12:26:15;;;;;;;8.77;3.88;;;12.50;99.90;;;;;;5066378;28;38470;-76
2023/10/24 12:28:44;;;;;;;5.15;2.65;;;12.50;99.90;;;;;;5068083;28;38057;-76
2023/10/24 12:31:11;;;;;;;5.55;3.00;;;12.60;99.90;;;;;;5067706;28;36651;-76
2023/10/24 12:33:38;;;;;;;3.63;2.78;;;12.60;99.90;;;;;;5068978;28;39256;-76